Time;durP1;ratioP1;P1;durP2;ratioP2;P2;SDS_P1;SDS_P2;PMS_P1;PMS_P2;Temp;Humidity;BMP_temperature;BMP_pressure;BME280_temperature;BME280_humidity;BME280_pressure;Samples;Min_cycle;Max_cycle;Signal;HPM_P1;HPM_P2
2023/07/27 00:02:15;;;;;;;0.15;0.15;;;14.60;99.90;;;;;;5089173;28;20044;-85
2023/07/27 00:04:41;;;;;;;0.20;0.20;;;14.60;99.90;;;;;;5115396;27;20594;-85
2023/07/27 00:07:07;;;;;;;0.20;0.20;;;14.60;99.90;;;;;;5079362;28;20048;-84
2023/07/27 00:09:33;;;;;;;0.10;0.10;;;14.60;99.90;;;;;;5083640;28;20048;-85
2023/07/27 00:11:58;;;;;;;0.20;0.20;;;14.60;99.90;;;;;;5088209;28;20067;-84
2023/07/27 00:14:24;;;;;;;0.10;0.10;;;14.50;99.90;;;;;;5077337;28;20057;-85
2023/07/27 00:16:50;;;;;;;0.20;0.20;;;14.50;99.90;;;;;;5117762;27;20048;-85
2023/07/27 00:19:16;;;;;;;0.10;0.10;;;14.50;99.90;;;;;;5080625;28;20412;-85
2023/07/27 00:21:42;;;;;;;0.10;0.10;;;14.50;99.90;;;;;;5082226;28;20055;-85
2023/07/27 00:24:07;;;;;;;0.13;0.13;;;14.40;99.90;;;;;;5079331;28;20074;-85
2023/07/27 00:26:33;;;;;;;0.15;0.15;;;14.40;99.90;;;;;;5076303;28;20036;-84
2023/07/27 00:28:59;;;;;;;0.10;0.10;;;14.40;99.90;;;;;;5090020;28;20040;-85
2023/07/27 00:31:24;;;;;;;0.13;0.13;;;14.40;99.90;;;;;;5089837;28;20518;-85
2023/07/27 00:33:50;;;;;;;0.10;0.10;;;14.30;99.90;;;;;;5082820;28;20266;-85
2023/07/27 00:36:16;;;;;;;0.20;0.20;;;14.30;99.90;;;;;;5083440;28;20044;-85
2023/07/27 00:38:41;;;;;;;0.10;0.10;;;14.30;99.90;;;;;;5111805;27;20088;-86
2023/07/27 00:41:08;;;;;;;0.20;0.20;;;14.20;99.90;;;;;;5084063;28;20395;-85
2023/07/27 00:43:34;;;;;;;0.10;0.10;;;14.20;99.90;;;;;;5086444;28;20053;-85
2023/07/27 00:45:59;;;;;;;0.10;0.10;;;14.20;99.90;;;;;;5087821;28;20036;-85
2023/07/27 00:48:25;;;;;;;0.15;0.15;;;14.20;99.90;;;;;;5085696;28;20041;-85
2023/07/27 00:50:52;;;;;;;0.10;0.10;;;14.10;99.90;;;;;;5081896;28;20044;-85
2023/07/27 00:53:18;;;;;;;0.20;0.20;;;14.10;99.90;;;;;;5088487;28;20044;-85
2023/07/27 00:55:44;;;;;;;0.10;0.10;;;14.10;99.90;;;;;;5123732;27;20060;-84
2023/07/27 00:58:11;;;;;;;0.10;0.10;;;14.20;99.90;;;;;;5084481;28;20055;-85
2023/07/27 01:00:38;;;;;;;0.10;0.10;;;14.10;99.90;;;;;;5090248;28;20048;-86
2023/07/27 01:03:04;;;;;;;0.10;0.10;;;14.10;99.90;;;;;;5095850;28;20047;-84
2023/07/27 01:05:30;;;;;;;0.20;0.20;;;14.10;99.90;;;;;;5105910;28;20048;-84
2023/07/27 01:07:56;;;;;;;0.10;0.10;;;14.10;99.90;;;;;;5092429;28;20104;-85
2023/07/27 01:10:30;;;;;;;0.10;0.10;;;14.10;99.90;;;;;;5086022;28;20538;-84
2023/07/27 01:13:02;;;;;;;0.10;0.10;;;14.10;99.90;;;;;;5089252;28;20090;-85
2023/07/27 01:15:31;;;;;;;0.20;0.20;;;14.10;99.90;;;;;;5103248;27;20048;-85
2023/07/27 01:18:22;;;;;;;0.10;0.10;;;14.10;99.90;;;;;;5105917;27;20131;-85
2023/07/27 01:21:00;;;;;;;0.20;0.20;;;14.10;99.90;;;;;;5087050;28;20044;-84
2023/07/27 01:23:43;;;;;;;0.20;0.20;;;14.10;99.90;;;;;;5120388;27;20471;-84
2023/07/27 01:26:14;;;;;;;0.10;0.10;;;14.10;99.90;;;;;;5089934;28;20044;-84
2023/07/27 01:29:11;;;;;;;0.20;0.20;;;14.10;99.90;;;;;;5117912;27;20445;-84
2023/07/27 01:31:42;;;;;;;0.10;0.10;;;14.10;99.90;;;;;;5083943;28;20036;-84
2023/07/27 01:34:21;;;;;;;0.20;0.20;;;14.10;99.90;;;;;;5080780;28;20036;-85
2023/07/27 01:36:54;;;;;;;0.20;0.20;;;14.00;99.90;;;;;;5081934;28;20048;-85
2023/07/27 01:39:21;;;;;;;0.10;0.10;;;14.00;99.90;;;;;;5087604;28;20047;-85
2023/07/27 01:41:47;;;;;;;0.10;0.10;;;14.00;99.90;;;;;;5088150;28;20044;-86
2023/07/27 01:44:15;;;;;;;0.10;0.10;;;14.00;99.90;;;;;;5085971;28;20097;-84
2023/07/27 01:46:42;;;;;;;0.20;0.20;;;14.00;99.90;;;;;;5109239;27;20101;-84
2023/07/27 01:49:10;;;;;;;0.10;0.10;;;14.00;99.90;;;;;;5086508;28;20044;-84
2023/07/27 01:51:37;;;;;;;0.20;0.20;;;14.00;99.90;;;;;;5081880;28;20047;-83
2023/07/27 01:54:04;;;;;;;0.10;0.10;;;14.00;99.90;;;;;;5111826;27;20079;-84
2023/07/27 01:56:31;;;;;;;0.15;0.15;;;14.00;99.90;;;;;;5071742;28;20499;-85
2023/07/27 01:58:58;;;;;;;0.10;0.10;;;14.00;99.90;;;;;;5086504;28;20064;-84
2023/07/27 02:01:24;;;;;;;0.10;0.10;;;14.00;99.90;;;;;;5119093;27;20082;-84
2023/07/27 02:03:50;;;;;;;0.20;0.20;;;14.00;99.90;;;;;;5087644;28;20040;-84
2023/07/27 02:06:16;;;;;;;0.10;0.10;;;14.00;99.90;;;;;;5075194;28;20043;-84
2023/07/27 02:08:41;;;;;;;0.20;0.20;;;14.00;99.90;;;;;;5084393;28;20039;-85
2023/07/27 02:11:10;;;;;;;0.20;0.20;;;14.00;99.90;;;;;;5120421;27;20469;-85
2023/07/27 02:13:47;;;;;;;0.10;0.10;;;14.00;99.90;;;;;;5088358;28;20426;-84
2023/07/27 02:16:31;;;;;;;0.15;0.15;;;13.90;99.90;;;;;;5073966;28;20032;-85
2023/07/27 02:19:00;;;;;;;0.10;0.10;;;13.90;99.90;;;;;;5068977;28;20105;-85
2023/07/27 02:21:28;;;;;;;0.20;0.20;;;13.90;99.90;;;;;;5071925;28;20055;-84
2023/07/27 02:23:55;;;;;;;0.20;0.20;;;13.90;99.90;;;;;;5087687;28;20083;-85
2023/07/27 02:26:21;;;;;;;0.20;0.20;;;13.90;99.90;;;;;;5099430;28;20036;-84
2023/07/27 02:28:47;;;;;;;0.17;0.17;;;13.90;99.90;;;;;;5084501;28;20072;-84
2023/07/27 02:31:13;;;;;;;0.10;0.10;;;13.90;99.90;;;;;;5106767;27;20078;-84
2023/07/27 02:33:38;;;;;;;0.10;0.10;;;14.00;99.90;;;;;;5084014;28;20523;-85
2023/07/27 02:36:04;;;;;;;0.10;0.10;;;13.90;99.90;;;;;;5088016;28;20110;-84
2023/07/27 02:38:30;;;;;;;0.20;0.20;;;14.00;99.90;;;;;;5083022;28;20442;-84
2023/07/27 02:40:56;;;;;;;0.10;0.10;;;14.00;99.90;;;;;;5102959;28;20525;-84
2023/07/27 02:43:21;;;;;;;0.20;0.20;;;14.00;99.90;;;;;;5107674;28;20040;-84
2023/07/27 02:45:47;;;;;;;0.20;0.20;;;13.90;99.90;;;;;;5068112;28;20052;-84
2023/07/27 02:48:13;;;;;;;0.10;0.10;;;13.90;99.90;;;;;;5110032;28;20147;-84
2023/07/27 02:50:48;;;;;;;0.20;0.20;;;14.00;99.90;;;;;;5114002;28;20040;-85
2023/07/27 02:53:14;;;;;;;0.20;0.20;;;14.00;99.90;;;;;;5087052;28;20072;-84
2023/07/27 02:55:39;;;;;;;0.13;0.13;;;14.00;99.90;;;;;;5086745;28;20517;-84
2023/07/27 02:58:08;;;;;;;0.20;0.20;;;14.00;99.90;;;;;;5080417;28;20040;-84
2023/07/27 03:00:34;;;;;;;0.10;0.10;;;14.00;99.90;;;;;;5076571;28;20047;-85
2023/07/27 03:03:00;;;;;;;0.20;0.20;;;14.00;99.90;;;;;;5071851;28;20098;-84
2023/07/27 03:05:27;;;;;;;0.20;0.20;;;14.00;99.90;;;;;;5068690;28;20090;-84
2023/07/27 03:07:52;;;;;;;0.20;0.20;;;14.20;99.90;;;;;;5109642;28;20087;-84
2023/07/27 03:10:18;;;;;;;0.20;0.20;;;13.90;99.90;;;;;;5068506;28;20088;-84
2023/07/27 03:12:44;;;;;;;0.20;0.20;;;13.90;99.90;;;;;;5070307;28;20044;-84
2023/07/27 03:15:28;;;;;;;0.20;0.20;;;14.00;99.90;;;;;;5076015;28;20056;-84
2023/07/27 03:17:54;;;;;;;0.10;0.10;;;14.00;99.90;;;;;;5081701;28;20783;-85
2023/07/27 03:20:20;;;;;;;0.13;0.13;;;14.00;99.90;;;;;;5092963;28;20040;-86
2023/07/27 03:22:46;;;;;;;0.10;0.10;;;14.00;99.90;;;;;;5087841;28;20102;-85
2023/07/27 03:25:14;;;;;;;0.10;0.10;;;14.00;99.90;;;;;;5091877;28;20532;-85
2023/07/27 03:27:40;;;;;;;0.10;0.10;;;14.00;99.90;;;;;;5087958;28;20040;-85
2023/07/27 03:30:06;;;;;;;0.17;0.17;;;14.10;99.90;;;;;;5106754;27;20040;-86
2023/07/27 03:32:32;;;;;;;0.10;0.10;;;14.10;99.90;;;;;;5084237;28;20048;-86
2023/07/27 03:34:58;;;;;;;0.13;0.13;;;14.20;99.90;;;;;;5079047;28;20041;-86
2023/07/27 03:37:23;;;;;;;0.20;0.20;;;14.10;99.90;;;;;;5081454;28;20044;-85
2023/07/27 03:39:49;;;;;;;0.10;0.10;;;14.10;99.90;;;;;;5090147;28;20044;-85
2023/07/27 03:42:14;;;;;;;0.10;0.10;;;14.10;99.90;;;;;;5086462;28;20097;-86
2023/07/27 03:44:40;;;;;;;0.20;0.20;;;14.10;99.90;;;;;;5092766;28;20036;-85
2023/07/27 03:47:06;;;;;;;0.20;0.20;;;14.10;99.90;;;;;;5119607;27;20135;-85
2023/07/27 03:49:31;;;;;;;0.10;0.10;;;14.20;99.90;;;;;;5095240;28;20055;-86
2023/07/27 03:51:57;;;;;;;0.20;0.20;;;14.20;99.90;;;;;;5091103;28;20048;-85
2023/07/27 03:54:23;;;;;;;0.10;0.10;;;14.20;99.90;;;;;;5116228;27;20404;-85
2023/07/27 03:56:48;;;;;;;0.20;0.20;;;14.20;99.90;;;;;;5071932;28;20400;-86
2023/07/27 03:59:14;;;;;;;0.20;0.20;;;14.10;99.90;;;;;;5080514;28;20495;-85
2023/07/27 04:01:39;;;;;;;0.20;0.20;;;14.10;99.90;;;;;;5088936;28;20076;-84
2023/07/27 04:04:05;;;;;;;0.10;0.10;;;14.20;99.90;;;;;;5088466;28;20047;-85
2023/07/27 04:06:31;;;;;;;0.17;0.17;;;14.10;99.90;;;;;;5091881;28;20044;-86
2023/07/27 04:08:57;;;;;;;0.20;0.20;;;14.10;99.90;;;;;;5088459;28;20040;-84
2023/07/27 04:11:23;;;;;;;0.20;0.20;;;14.10;99.90;;;;;;5077391;28;20056;-85
2023/07/27 04:13:48;;;;;;;0.10;0.10;;;14.10;99.90;;;;;;5081624;28;20040;-86
2023/07/27 04:16:14;;;;;;;0.20;0.20;;;14.10;99.90;;;;;;5101989;27;20052;-86
2023/07/27 04:18:40;;;;;;;0.20;0.20;;;14.10;99.90;;;;;;5088604;28;20062;-83
2023/07/27 04:21:05;;;;;;;0.20;0.20;;;14.10;99.90;;;;;;5085101;28;20392;-84
2023/07/27 04:23:31;;;;;;;0.10;0.10;;;14.10;99.90;;;;;;5087635;28;20051;-82
2023/07/27 04:25:57;;;;;;;0.20;0.20;;;14.10;99.90;;;;;;5090763;28;20044;-85
2023/07/27 04:28:22;;;;;;;0.10;0.10;;;14.10;99.90;;;;;;5089024;28;20071;-85
2023/07/27 04:30:48;;;;;;;0.20;0.20;;;14.10;99.90;;;;;;5072676;28;20090;-84
2023/07/27 04:33:14;;;;;;;0.10;0.10;;;14.10;99.90;;;;;;5084804;28;20047;-83
2023/07/27 04:35:39;;;;;;;0.20;0.20;;;14.10;99.90;;;;;;5087590;28;20119;-85
2023/07/27 04:38:05;;;;;;;0.10;0.10;;;14.10;99.90;;;;;;5087241;28;20051;-83
2023/07/27 04:40:30;;;;;;;0.10;0.10;;;14.10;99.90;;;;;;5083353;28;20041;-84
2023/07/27 04:42:56;;;;;;;0.20;0.20;;;14.10;99.90;;;;;;5082862;28;20123;-84
2023/07/27 04:45:22;;;;;;;0.10;0.10;;;14.10;99.90;;;;;;5124248;27;20036;-85
2023/07/27 04:47:47;;;;;;;0.20;0.20;;;14.20;99.90;;;;;;5084806;28;20076;-84
2023/07/27 04:50:13;;;;;;;0.10;0.10;;;14.20;99.90;;;;;;5074564;28;20051;-85
2023/07/27 04:52:39;;;;;;;0.20;0.20;;;14.20;99.90;;;;;;5077456;28;20052;-84
2023/07/27 04:55:05;;;;;;;0.15;0.15;;;14.20;99.90;;;;;;5078537;28;20039;-82
2023/07/27 04:57:31;;;;;;;0.20;0.20;;;14.20;99.90;;;;;;5113896;27;20069;-82
2023/07/27 04:59:56;;;;;;;0.20;0.20;;;14.20;99.90;;;;;;5106952;27;20044;-83
2023/07/27 05:02:23;;;;;;;0.20;0.20;;;14.20;99.90;;;;;;5083286;28;20614;-84
2023/07/27 05:04:52;;;;;;;0.20;0.20;;;14.30;99.90;;;;;;5080261;28;20037;-84
2023/07/27 05:07:19;;;;;;;0.20;0.20;;;14.20;99.90;;;;;;5117442;27;20046;-83
2023/07/27 05:09:44;;;;;;;0.10;0.10;;;14.30;99.90;;;;;;5088211;28;20081;-84
2023/07/27 05:12:10;;;;;;;0.10;0.10;;;14.30;99.90;;;;;;5086679;28;20048;-84
2023/07/27 05:14:36;;;;;;;0.20;0.20;;;14.30;99.90;;;;;;5078509;28;20053;-83
2023/07/27 05:17:01;;;;;;;0.10;0.10;;;14.30;99.90;;;;;;5082924;28;20052;-85
2023/07/27 05:19:27;;;;;;;0.10;0.10;;;14.40;99.90;;;;;;5075292;28;20075;-84
2023/07/27 05:21:53;;;;;;;0.20;0.20;;;14.40;99.90;;;;;;5081723;28;20074;-84
2023/07/27 05:24:18;;;;;;;0.10;0.10;;;14.40;99.90;;;;;;5088533;28;20194;-83
2023/07/27 05:26:44;;;;;;;0.20;0.20;;;14.40;99.90;;;;;;5082157;28;20143;-83
2023/07/27 05:29:10;;;;;;;0.20;0.20;;;14.50;99.90;;;;;;5078255;28;20059;-83
2023/07/27 05:31:35;;;;;;;0.10;0.10;;;14.70;99.90;;;;;;5075064;28;20078;-86
2023/07/27 05:34:01;;;;;;;0.20;0.20;;;14.50;99.90;;;;;;5116500;27;20052;-83
2023/07/27 05:36:27;;;;;;;0.10;0.10;;;14.50;99.90;;;;;;5103440;28;20052;-80
2023/07/27 05:38:54;;;;;;;0.10;0.10;;;14.50;99.90;;;;;;5087635;28;20048;-81
2023/07/27 05:41:19;;;;;;;0.20;0.20;;;14.50;99.90;;;;;;5084132;28;20047;-80
2023/07/27 05:43:45;;;;;;;0.20;0.20;;;14.50;99.90;;;;;;5098770;28;20036;-81
2023/07/27 05:46:10;;;;;;;0.20;0.20;;;14.50;99.90;;;;;;5087127;28;20040;-81
2023/07/27 05:48:36;;;;;;;0.10;0.10;;;14.50;99.90;;;;;;5070678;28;20085;-81
2023/07/27 05:51:03;;;;;;;0.15;0.15;;;14.50;99.90;;;;;;5103660;28;20048;-81
2023/07/27 05:53:28;;;;;;;0.20;0.20;;;14.50;99.90;;;;;;5117249;27;20534;-81
2023/07/27 05:55:55;;;;;;;0.20;0.20;;;14.50;99.90;;;;;;5085469;28;20177;-81
2023/07/27 05:58:20;;;;;;;0.10;0.10;;;14.70;99.90;;;;;;5087877;28;20040;-83
2023/07/27 06:00:46;;;;;;;0.10;0.10;;;14.60;99.90;;;;;;5084959;28;20036;-81
2023/07/27 06:03:12;;;;;;;0.10;0.10;;;14.60;99.90;;;;;;5084780;28;20536;-81
2023/07/27 06:05:45;;;;;;;0.10;0.10;;;14.60;99.90;;;;;;5087250;28;20040;-81
2023/07/27 06:08:11;;;;;;;0.10;0.10;;;14.60;99.90;;;;;;5103592;27;20058;-82
2023/07/27 06:10:36;;;;;;;0.20;0.20;;;14.60;99.90;;;;;;5087054;28;20032;-82
2023/07/27 06:13:02;;;;;;;0.10;0.10;;;14.70;99.90;;;;;;5089586;28;20118;-85
2023/07/27 06:15:28;;;;;;;0.10;0.10;;;14.70;99.90;;;;;;5084852;28;20070;-84
2023/07/27 06:17:54;;;;;;;0.13;0.13;;;14.70;99.90;;;;;;5085979;28;20048;-87
2023/07/27 06:20:19;;;;;;;0.20;0.20;;;14.70;99.90;;;;;;5087497;28;20126;-83
2023/07/27 06:22:45;;;;;;;0.10;0.10;;;14.60;99.90;;;;;;5087494;28;20185;-85
2023/07/27 06:25:10;;;;;;;0.20;0.20;;;14.70;99.90;;;;;;5088966;28;20043;-83
2023/07/27 06:27:36;;;;;;;0.10;0.10;;;14.70;99.90;;;;;;5082998;28;20050;-82
2023/07/27 06:30:02;;;;;;;0.17;0.17;;;14.70;99.90;;;;;;5076121;28;20028;-83
2023/07/27 06:32:27;;;;;;;0.20;0.20;;;14.70;99.90;;;;;;5083292;28;20039;-83
2023/07/27 06:34:53;;;;;;;0.10;0.10;;;14.80;99.90;;;;;;5086104;28;20071;-82
2023/07/27 06:37:19;;;;;;;0.20;0.20;;;14.90;99.90;;;;;;5088468;28;20074;-83
2023/07/27 06:39:44;;;;;;;0.20;0.20;;;14.90;99.90;;;;;;5087528;28;20470;-82
2023/07/27 06:42:10;;;;;;;0.10;0.10;;;15.00;99.90;;;;;;5075961;28;20178;-82
2023/07/27 06:44:36;;;;;;;0.20;0.20;;;15.10;99.90;;;;;;5085128;28;20040;-84
2023/07/27 06:47:02;;;;;;;0.17;0.17;;;15.10;99.90;;;;;;5087015;28;20044;-84
2023/07/27 06:49:27;;;;;;;0.10;0.10;;;15.10;99.90;;;;;;5107768;28;20037;-83
2023/07/27 06:51:53;;;;;;;0.17;0.17;;;15.20;99.90;;;;;;5079723;28;20063;-83
2023/07/27 06:54:18;;;;;;;0.20;0.20;;;15.20;99.90;;;;;;5087053;28;20048;-81
2023/07/27 06:56:44;;;;;;;0.20;0.20;;;15.30;99.90;;;;;;5087906;28;20040;-83
2023/07/27 06:59:10;;;;;;;0.20;0.20;;;15.40;99.90;;;;;;5074655;28;20048;-85
2023/07/27 07:01:35;;;;;;;0.10;0.10;;;15.40;99.90;;;;;;5084004;28;20038;-84
2023/07/27 07:04:02;;;;;;;0.10;0.10;;;15.40;99.90;;;;;;5101976;28;20052;-85
2023/07/27 07:06:28;;;;;;;0.20;0.20;;;15.50;99.90;;;;;;5102919;28;20063;-84
2023/07/27 07:08:54;;;;;;;0.20;0.20;;;15.50;99.90;;;;;;5086820;28;20576;-85
2023/07/27 07:11:19;;;;;;;0.10;0.10;;;15.50;99.90;;;;;;5090198;28;20032;-84
2023/07/27 07:13:46;;;;;;;0.15;0.15;;;15.60;99.90;;;;;;5086036;28;20108;-84
2023/07/27 07:16:11;;;;;;;0.20;0.20;;;15.60;99.90;;;;;;5088702;28;20048;-83
2023/07/27 07:18:37;;;;;;;0.20;0.20;;;15.60;99.90;;;;;;5074589;28;20407;-84
2023/07/27 07:21:03;;;;;;;0.10;0.10;;;15.60;99.90;;;;;;5074110;28;20055;-83
2023/07/27 07:23:28;;;;;;;0.13;0.13;;;15.60;99.90;;;;;;5079013;28;20147;-84
2023/07/27 07:25:54;;;;;;;0.13;0.13;;;15.60;99.90;;;;;;5114517;28;20048;-85
2023/07/27 07:28:20;;;;;;;0.20;0.20;;;15.60;99.90;;;;;;5079337;28;20476;-83
2023/07/27 07:30:46;;;;;;;0.10;0.10;;;15.60;99.90;;;;;;5069779;28;20128;-85
2023/07/27 07:33:11;;;;;;;0.20;0.20;;;15.60;99.90;;;;;;5068701;28;20051;-84
2023/07/27 07:35:39;;;;;;;0.10;0.10;;;15.60;99.90;;;;;;5117004;28;20503;-86
2023/07/27 07:38:07;;;;;;;0.10;0.10;;;15.60;99.90;;;;;;5089905;28;20048;-85
2023/07/27 07:40:33;;;;;;;0.20;0.20;;;15.70;99.90;;;;;;5086215;28;20044;-85
2023/07/27 07:42:59;;;;;;;0.10;0.10;;;15.70;99.90;;;;;;5087422;28;20052;-86
2023/07/27 07:45:25;;;;;;;0.20;0.20;;;15.80;99.90;;;;;;5089389;28;20755;-86
2023/07/27 07:47:51;;;;;;;0.20;0.20;;;15.80;99.90;;;;;;5086724;28;20052;-84
2023/07/27 07:50:17;;;;;;;0.20;0.20;;;15.90;99.90;;;;;;5087781;28;20072;-88
2023/07/27 07:52:42;;;;;;;0.10;0.10;;;15.90;99.90;;;;;;5085642;28;20104;-86
2023/07/27 07:55:09;;;;;;;0.10;0.10;;;15.90;99.90;;;;;;5091395;28;20040;-87
2023/07/27 07:57:34;;;;;;;0.20;0.20;;;15.80;99.90;;;;;;5116545;28;20043;-87
2023/07/27 08:00:00;;;;;;;0.20;0.20;;;15.90;99.90;;;;;;5106121;28;20998;-86
2023/07/27 08:02:26;;;;;;;0.20;0.20;;;15.90;99.90;;;;;;5123997;27;20048;-86
2023/07/27 08:04:52;;;;;;;0.10;0.10;;;16.00;99.90;;;;;;5092611;28;20044;-85
2023/07/27 08:07:18;;;;;;;0.13;0.13;;;16.00;99.90;;;;;;5122276;27;20084;-87
2023/07/27 08:09:43;;;;;;;0.20;0.20;;;16.00;99.90;;;;;;5097402;28;20400;-84
2023/07/27 08:12:09;;;;;;;0.10;0.10;;;16.00;99.90;;;;;;5108190;28;20051;-86
2023/07/27 08:14:35;;;;;;;0.10;0.10;;;16.10;99.90;;;;;;5087861;28;20133;-84
2023/07/27 08:17:00;;;;;;;0.20;0.20;;;16.20;99.90;;;;;;5107160;28;20076;-86
2023/07/27 08:19:26;;;;;;;0.20;0.20;;;16.20;99.90;;;;;;5092281;28;20047;-85
2023/07/27 08:21:52;;;;;;;0.20;0.20;;;16.20;99.90;;;;;;5094934;28;20044;-86
2023/07/27 08:24:17;;;;;;;0.20;0.20;;;16.20;99.90;;;;;;5086672;28;20075;-86
2023/07/27 08:26:43;;;;;;;0.20;0.20;;;16.30;99.90;;;;;;5090536;28;20079;-86
2023/07/27 08:29:09;;;;;;;0.20;0.20;;;16.20;99.90;;;;;;5096228;28;20048;-86
2023/07/27 08:31:34;;;;;;;0.20;0.20;;;16.30;99.90;;;;;;5084438;28;20494;-84
2023/07/27 08:34:00;;;;;;;0.20;0.20;;;16.30;99.90;;;;;;5090952;28;20800;-85
2023/07/27 08:36:26;;;;;;;0.20;0.20;;;16.30;99.90;;;;;;5085348;28;20150;-86
2023/07/27 08:38:51;;;;;;;0.10;0.10;;;16.30;99.90;;;;;;5084777;28;20044;-86
2023/07/27 08:41:17;;;;;;;0.20;0.20;;;16.30;99.90;;;;;;5090599;28;20040;-87
2023/07/27 08:43:43;;;;;;;0.20;0.20;;;16.30;99.90;;;;;;5119017;27;20555;-83
2023/07/27 08:46:09;;;;;;;0.20;0.20;;;16.30;99.90;;;;;;5095736;28;20046;-87
2023/07/27 08:48:36;;;;;;;0.17;0.17;;;16.30;99.90;;;;;;5080778;28;20061;-86
2023/07/27 08:51:01;;;;;;;0.20;0.20;;;16.30;99.90;;;;;;5088420;28;20064;-84
2023/07/27 08:53:27;;;;;;;0.10;0.10;;;16.40;99.90;;;;;;5077277;28;20036;-84
2023/07/27 08:55:53;;;;;;;0.20;0.20;;;16.40;99.90;;;;;;5089576;28;20135;-86
2023/07/27 08:58:19;;;;;;;0.10;0.10;;;16.40;99.90;;;;;;5088436;28;20137;-84
2023/07/27 09:00:45;;;;;;;0.20;0.20;;;16.30;99.90;;;;;;5088141;28;20083;-87
2023/07/27 09:03:10;;;;;;;0.20;0.20;;;16.40;99.90;;;;;;5096378;28;20156;-87
2023/07/27 09:05:38;;;;;;;0.20;0.20;;;16.40;99.90;;;;;;5098011;28;20042;-86
2023/07/27 09:08:09;;;;;;;0.20;0.20;;;16.50;99.90;;;;;;5090245;28;20181;-85
2023/07/27 09:10:37;;;;;;;0.20;0.20;;;16.50;99.90;;;;;;5091271;28;20556;-83
2023/07/27 09:13:03;;;;;;;0.10;0.10;;;16.60;99.90;;;;;;5089620;28;20482;-87
2023/07/27 09:15:30;;;;;;;0.20;0.20;;;16.60;99.90;;;;;;5096580;28;20044;-83
2023/07/27 09:17:58;;;;;;;0.20;0.20;;;16.50;99.90;;;;;;5091702;28;20063;-85
2023/07/27 09:20:24;;;;;;;0.20;0.20;;;16.60;99.90;;;;;;5082240;28;20376;-87
2023/07/27 09:22:50;;;;;;;0.20;0.20;;;16.70;99.90;;;;;;5086134;28;20040;-87
2023/07/27 09:25:22;;;;;;;0.10;0.10;;;16.70;99.90;;;;;;5089467;28;20059;-88
2023/07/27 09:27:53;;;;;;;0.20;0.20;;;16.80;99.90;;;;;;5071644;28;20131;-87
2023/07/27 09:30:21;;;;;;;0.20;0.20;;;16.80;99.90;;;;;;5096366;28;20035;-87
2023/07/27 09:32:47;;;;;;;0.10;0.10;;;16.90;99.90;;;;;;5100964;28;20820;-86
2023/07/27 09:35:14;;;;;;;0.20;0.20;;;16.90;99.90;;;;;;5088728;28;20086;-85
2023/07/27 09:37:48;;;;;;;0.10;0.10;;;17.00;99.90;;;;;;5082907;28;20048;-84
2023/07/27 09:40:24;;;;;;;0.20;0.20;;;17.00;99.90;;;;;;5090420;28;20037;-84
2023/07/27 09:42:51;;;;;;;0.10;0.10;;;17.00;99.90;;;;;;5085565;28;20458;-86
2023/07/27 09:45:18;;;;;;;0.20;0.20;;;17.00;99.90;;;;;;5092687;28;20059;-87
2023/07/27 09:47:45;;;;;;;0.10;0.10;;;17.00;99.90;;;;;;5092011;28;20043;-87
2023/07/27 09:50:11;;;;;;;0.20;0.20;;;16.90;99.90;;;;;;5091297;28;20034;-86
2023/07/27 09:52:38;;;;;;;0.20;0.20;;;16.90;99.90;;;;;;5089555;28;20056;-87
2023/07/27 09:55:04;;;;;;;0.20;0.20;;;16.90;99.90;;;;;;5080691;28;20036;-87
2023/07/27 09:57:29;;;;;;;0.10;0.10;;;17.00;99.90;;;;;;5108182;27;20738;-87
2023/07/27 09:59:55;;;;;;;0.20;0.20;;;17.00;99.90;;;;;;5076594;28;20586;-87
2023/07/27 10:02:22;;;;;;;0.20;0.20;;;17.00;99.90;;;;;;5105552;27;20153;-85
2023/07/27 10:04:49;;;;;;;0.20;0.20;;;17.00;99.90;;;;;;5087142;28;20040;-84
2023/07/27 10:07:26;;;;;;;0.20;0.20;;;17.10;99.90;;;;;;5081506;28;20078;-86
2023/07/27 10:10:30;;;;;;;0.20;0.20;;;17.10;99.90;;;;;;5087683;28;20032;-84
2023/07/27 10:13:00;;;;;;;0.10;0.10;;;17.00;99.90;;;;;;5070286;28;20403;-86
2023/07/27 10:15:29;;;;;;;0.20;0.20;;;17.10;99.90;;;;;;5075703;28;20079;-85
2023/07/27 10:17:58;;;;;;;0.20;0.20;;;17.10;99.90;;;;;;5085537;28;20107;-85
2023/07/27 10:20:34;;;;;;;0.20;0.20;;;17.30;99.90;;;;;;5084096;28;20134;-84
2023/07/27 10:23:12;;;;;;;0.20;0.20;;;17.30;99.90;;;;;;5110671;27;20044;-84
2023/07/27 10:25:56;;;;;;;0.20;0.20;;;17.30;99.90;;;;;;5088513;28;20079;-84
2023/07/27 10:28:32;;;;;;;0.13;0.13;;;17.30;99.90;;;;;;5082370;28;20041;-83
2023/07/27 10:31:23;;;;;;;0.13;0.13;;;17.40;99.90;;;;;;5075612;28;20180;-85
2023/07/27 10:34:07;;;;;;;0.20;0.20;;;17.40;99.90;;;;;;5084799;28;20443;-85
2023/07/27 10:36:56;;;;;;;0.20;0.20;;;17.40;99.90;;;;;;5077116;28;20131;-86
2023/07/27 10:39:42;;;;;;;0.20;0.20;;;17.50;99.90;;;;;;5093137;28;20398;-84
2023/07/27 10:42:10;;;;;;;0.20;0.20;;;17.50;99.90;;;;;;5075980;28;20050;-83
2023/07/27 10:44:41;;;;;;;0.20;0.20;;;17.50;99.90;;;;;;5071955;28;20056;-86
2023/07/27 10:47:12;;;;;;;0.20;0.20;;;17.50;99.90;;;;;;5085997;28;20108;-85
2023/07/27 10:49:46;;;;;;;0.20;0.20;;;17.50;99.90;;;;;;5119489;28;20040;-84
2023/07/27 10:52:39;;;;;;;0.20;0.20;;;17.60;99.90;;;;;;5110466;28;20106;-86
2023/07/27 10:55:05;;;;;;;0.20;0.20;;;17.60;99.90;;;;;;5069584;28;20459;-85
2023/07/27 10:57:33;;;;;;;0.20;0.20;;;17.60;99.90;;;;;;5070715;28;20056;-83
2023/07/27 10:59:59;;;;;;;0.20;0.20;;;17.60;99.90;;;;;;5085875;28;20040;-84
2023/07/27 11:02:31;;;;;;;0.20;0.20;;;17.60;99.90;;;;;;5079999;28;20044;-83
2023/07/27 11:04:59;;;;;;;0.20;0.20;;;17.60;99.90;;;;;;5082197;28;20083;-85
2023/07/27 11:07:44;;;;;;;0.20;0.20;;;17.50;99.90;;;;;;5088937;28;20086;-85
2023/07/27 11:10:13;;;;;;;0.15;0.15;;;17.50;99.90;;;;;;5083970;28;20032;-83
2023/07/27 11:12:50;;;;;;;0.20;0.20;;;17.50;99.90;;;;;;5087671;28;20048;-83
2023/07/27 11:15:29;;;;;;;0.10;0.10;;;17.50;99.90;;;;;;5086432;28;20044;-83
2023/07/27 11:17:57;;;;;;;0.20;0.20;;;17.50;99.90;;;;;;5083317;28;20075;-82
2023/07/27 11:20:25;;;;;;;0.20;0.20;;;17.50;99.90;;;;;;5087482;28;20407;-83
2023/07/27 11:22:52;;;;;;;0.20;0.20;;;17.50;99.90;;;;;;5116507;28;20110;-81
2023/07/27 11:25:18;;;;;;;0.20;0.20;;;17.50;99.90;;;;;;5077303;28;20554;-82
2023/07/27 11:27:51;;;;;;;0.20;0.20;;;17.50;99.90;;;;;;5085319;28;20075;-82
2023/07/27 11:30:21;;;;;;;0.20;0.20;;;17.50;99.90;;;;;;5081185;28;20119;-88
2023/07/27 11:33:03;;;;;;;0.20;0.20;;;17.50;99.90;;;;;;5079270;28;20040;-89
2023/07/27 11:35:30;;;;;;;0.20;0.20;;;17.50;99.90;;;;;;5081011;28;20075;-87
2023/07/27 11:37:56;;;;;;;0.20;0.20;;;17.50;99.90;;;;;;5092558;28;20044;-85
2023/07/27 11:40:23;;;;;;;0.20;0.20;;;17.50;99.90;;;;;;5092043;28;20078;-89
2023/07/27 11:42:49;;;;;;;0.20;0.20;;;17.60;99.90;;;;;;5090996;28;20051;-88
2023/07/27 11:45:15;;;;;;;0.20;0.20;;;17.60;99.90;;;;;;5089453;28;20054;-82
2023/07/27 11:47:40;;;;;;;0.20;0.20;;;17.60;99.90;;;;;;5089283;28;20048;-93
2023/07/27 11:50:08;;;;;;;0.20;0.20;;;17.60;99.90;;;;;;5091221;28;20040;-90
2023/07/27 11:52:38;;;;;;;0.20;0.20;;;17.70;99.90;;;;;;5080986;28;20130;-92
2023/07/27 11:55:04;;;;;;;0.20;0.20;;;17.60;99.90;;;;;;5076213;28;20128;-93
2023/07/27 11:57:30;;;;;;;0.20;0.20;;;17.70;99.90;;;;;;5072580;28;20132;-90
2023/07/27 12:00:12;;;;;;;0.20;0.20;;;17.70;99.90;;;;;;5083059;28;20128;-89
2023/07/27 12:02:49;;;;;;;0.20;0.20;;;17.70;99.90;;;;;;5092811;28;20071;-88
2023/07/27 12:05:15;;;;;;;0.20;0.20;;;17.70;99.90;;;;;;5087924;28;20036;-87
2023/07/27 12:07:42;;;;;;;0.20;0.20;;;17.70;99.90;;;;;;5081958;28;20426;-87
2023/07/27 12:10:17;;;;;;;0.17;0.17;;;17.60;99.90;;;;;;5085539;28;20028;-87
2023/07/27 12:12:59;;;;;;;0.20;0.20;;;17.50;99.90;;;;;;5080602;28;20040;-88
2023/07/27 12:15:31;;;;;;;0.20;0.20;;;17.60;99.90;;;;;;5076125;28;20056;-86
2023/07/27 12:18:02;;;;;;;0.20;0.20;;;17.60;99.90;;;;;;5090772;28;20044;-89
2023/07/27 12:20:30;;;;;;;0.20;0.20;;;17.50;99.90;;;;;;5089111;28;20044;-89
2023/07/27 12:22:57;;;;;;;0.20;0.20;;;17.60;99.90;;;;;;5079876;28;20427;-88
2023/07/27 12:25:24;;;;;;;0.20;0.20;;;17.60;99.90;;;;;;5101609;27;20048;-89
2023/07/27 12:27:50;;;;;;;0.20;0.20;;;17.60;99.90;;;;;;5116003;27;20040;-86
2023/07/27 12:30:15;;;;;;;0.20;0.20;;;17.60;99.90;;;;;;5090801;28;20092;-87
2023/07/27 12:32:41;;;;;;;0.20;0.20;;;17.60;99.90;;;;;;5090723;28;20047;-86
2023/07/27 12:35:07;;;;;;;0.20;0.20;;;17.70;99.90;;;;;;5081567;28;20051;-88
2023/07/27 12:37:33;;;;;;;0.20;0.20;;;17.80;99.90;;;;;;5113683;27;20181;-90
2023/07/27 12:39:59;;;;;;;0.20;0.20;;;17.70;99.90;;;;;;5086103;28;20130;-89
2023/07/27 12:42:25;;;;;;;0.20;0.20;;;17.80;99.90;;;;;;5125414;27;20498;-91
2023/07/27 12:44:51;;;;;;;0.20;0.20;;;17.90;99.90;;;;;;5088696;28;20051;-93
2023/07/27 12:47:17;;;;;;;0.20;0.20;;;17.90;99.90;;;;;;5086158;28;20052;-91
2023/07/27 12:49:42;;;;;;;0.20;0.20;;;17.80;99.90;;;;;;5086186;28;20032;-94
2023/07/27 12:52:08;;;;;;;0.20;0.20;;;18.00;99.90;;;;;;5087855;28;20055;-90